Raúl Jiménez

Olheiro-Chefe - Oviedo
22 Fev 2027
Segunda-feira
Processo

Personalidade

Adaptabilidade (10) Ambição (5) Controvérsia (5) Lealdade (1) Pressão (2) Profissionalismo (20) Espírito Esportivo (7) Temperamento (4)

Perfil

Estilo de Treinamento Democrático
Licença Continental Pro
Determinação 10
Gestão de Pessoas 13
Motivação 6
Disciplina 6
Satisfação no Trabalho
50%
Fadiga
0%
Função Olheiro-Chefe
Salário 60.8K p/s
Contrato 14.03.2030

Desempenho

Comportamento Normal
Eficácia do Treinamento
21%
Desenvolvimento do Jogador
50%
Prevenção de Lesões
40%
Implementação Tática
40%

Eventos Recentes

Avaliou um jogador agora
Avaliou um jogador agora
Participou de uma reunião de recrutamento agora
Recomendou um alvo de transferência agora
Avaliou um jogador agora
Avaliou um jogador agora
Observou uma partida agora
Avaliou um jogador 7d atrás

Monitorando agora

158
Jogador Clube Status Habilidade Confiança Observado Última observação Último voto
Surprise Manthosi Polokwane City Ativo 80 / 101 40% 2 21.02.2027 -
Alexis Fretes Libertad Ativo 115 / 105 40% 1 21.02.2027 -
Danilo Botafogo Ativo 123 / 141 40% 1 17.02.2027 -
Ismaël Koné Sassuolo Ativo 128 / 146 40% 1 17.02.2027 -
Alexandr Chernikov Krasnodar Ativo 132 / 125 40% 1 16.02.2027 -
Juan Pablo Freytes Fluminense Ativo 127 / 140 40% 1 16.02.2027 -
Sampson Dweh Viktoria Plzen Ativo 145 / 149 40% 3 15.02.2027 -
João Teixeira Porto Ativo 100 / 119 40% 4 15.02.2027 -
Erik Lira Cruz Azul Ativo 125 / 123 40% 2 15.02.2027 -
Facundo Herrera Boca Juniors Ativo 90 / 117 40% 1 15.02.2027 -
Dmitry Ivannikov Chaika Ativo 89 / 102 40% 2 14.02.2027 -
Simone Kosijer Triestina Ativo 92 / 93 40% 2 14.02.2027 -
Joel Godoy Sevilla Ativo 115 / 129 40% 2 12.02.2027 -
Arsenii Batahov Trabzonspor Ativo 148 / 135 40% 1 12.02.2027 -
Lucas Piton Vasco da Gama Ativo 130 / 128 40% 1 12.02.2027 -
Maldini Kacurri Grimsby Town Ativo 98 / 99 40% 1 12.02.2027 -
Simone Canestrelli Pisa Ativo 125 / 122 40% 1 10.02.2027 -
Tim Jabol-Folcarelli Trabzonspor Ativo 118 / 151 40% 1 10.02.2027 -
Santiago Daniele Chacarita Juniors Ativo 109 / 112 40% 1 10.02.2027 -
Vinicius Tobias Shakhtar Ativo 142 / 144 40% 2 07.02.2027 -
Santiago Sosa Vasco da Gama Ativo 123 / 117 40% 1 07.02.2027 -
Ivan Edson Veracruz Ativo 116 / 111 40% 1 06.02.2027 -
Eliás Montiel Pachuca Ativo 134 / 153 40% 3 05.02.2027 -
Gustavo Marques Bragantino Ativo 136 / 113 40% 1 04.02.2027 -
Aiham Ousou Charleroi Ativo 134 / 126 40% 1 03.02.2027 -
Alexandr Siljanov Lokomotiv Moscow Ativo 139 / 127 40% 1 03.02.2027 -
Fidel Ambríz Monterrey Ativo 115 / 132 40% 3 02.02.2027 -
Frans Krätzig Red Bull Salzburg Ativo 132 / 135 40% 1 02.02.2027 -
Nacer Tielemans Mouscron Ativo 141 / 140 40% 1 02.02.2027 -
Joaquín Pereyra Estudiantes Ativo 89 / 92 40% 1 02.02.2027 -
Jakub Adkonis Lechia Ativo 88 / 110 40% 2 01.02.2027 -
Riyad Idrissi Cagliari Ativo 131 / 113 40% 1 01.02.2027 -
Máximo Johnston Colón Ativo 99 / 106 40% 1 25.01.2027 -
Felipe Schaare Racing Club Ativo 89 / 105 40% 2 23.01.2027 -
Lautaro Ávila Racing Ativo 80 / 95 40% 1 22.01.2027 -
Lucas Agazzi Defensor Sporting Ativo 133 / 107 40% 1 18.01.2027 -
Juan Pablo De la Reta Maipú Ativo 124 / 121 40% 1 17.01.2027 -
André Miranda Porto Ativo 101 / 97 40% 1 17.01.2027 -
Santiago Sosa Yung Defensa y Justicia Ativo 104 / 132 40% 1 15.01.2027 -
Ignacio Perruzzi San Lorenzo Ativo 137 / 145 40% 2 14.01.2027 -
Álex Marchal Real Sociedad Ativo 108 / 116 40% 1 14.01.2027 -
Obed Vargas Atlético Madrid Ativo 119 / 134 40% 1 13.01.2027 -
Gastón Martínez Belgrano Ativo 102 / 118 40% 1 13.01.2027 -
Víctor Guzmán Monterrey Ativo 132 / 114 40% 1 12.01.2027 -
Cemran Dansin Orlando Pirates Ativo 100 / 120 40% 1 12.01.2027 -
Salvi Sánchez Ceuta Ativo 108 / 122 58% 1 11.01.2027 Aprovar
Nicolás Soto America de Cali Ativo 92 / 111 40% 2 04.01.2027 -
Felipe Igón Racing Club Ativo 90 / 107 40% 1 04.01.2027 -
Franco Díaz KV Oostende Ativo 118 / 109 40% 3 31.12.2026 -
Juan Bisanz Huracán Rejeitado 118 / 130 40% 1 31.12.2026 Mais informações
Nicolás Ibáñez Cruz Azul Ativo 151 / 128 40% 4 30.12.2026 -
Ante Budimir Osasuna Ativo 159 / 136 40% 2 30.12.2026 -
Florián Monzón Atlas Ativo 121 / 125 40% 2 29.12.2026 -
Nicolás Fernández Belgrano Ativo 123 / 147 40% 1 29.12.2026 -
Juan Ignacio Berasi Colón Ativo 98 / 101 40% 1 28.12.2026 -
Mourad Tijuana Ativo 103 / 108 40% 1 28.12.2026 -
Rodrigo Aguirre Tigres Ativo 113 / 135 40% 4 27.12.2026 -
Munir Albacete Ativo 135 / 138 40% 1 27.12.2026 -
Jorge Obregón Deportivo Pasto Ativo 99 / 112 40% 2 25.12.2026 -
Mohamed Salah Trabzonspor Ativo 167 / 169 40% 6 25.12.2026 -
Diego Rossi Monterrey Ativo 151 / 127 40% 3 24.12.2026 -
Duk Atlas Ativo 126 / 129 40% 3 24.12.2026 -
Efraín Álvarez Guadalajara Ativo 125 / 118 40% 3 23.12.2026 -
Luca Orellano Monterrey Ativo 133 / 151 40% 3 22.12.2026 -
Lucas Di Yorio Santos Laguna Ativo 99 / 122 40% 3 22.12.2026 -
Ángel Sepúlveda Guadalajara Ativo 127 / 105 40% 2 21.12.2026 -
Alisson Safira Juventude Ativo 116 / 125 40% 1 21.12.2026 -
César Araújo Tigres Ativo 134 / 116 40% 1 21.12.2026 -
Edoardo Motta Lazio Ativo 123 / 126 40% 1 20.12.2026 -
Maxim Shichanin Zenit Ativo 86 / 77 40% 1 20.12.2026 -
Juan Dinenno Pumas UNAM Ativo 115 / 108 40% 1 17.12.2026 -
Juan Bezerra Zamalek Ativo 118 / 118 40% 1 16.12.2026 -
Relebohile Mofokeng Orlando Pirates Ativo 109 / 136 40% 1 16.12.2026 -
Michael Barrios Once Caldas Ativo 111 / 121 40% 2 15.12.2026 -
Achraf Bencharki Al Ahly Ativo 117 / 118 40% 2 15.12.2026 -
Brian Gutiérrez Guadalajara Ativo 134 / 120 40% 1 14.12.2026 -
Luca Martelli Forli Ativo 96 / 82 40% 1 14.12.2026 -
Óscar Plano Leganés Ativo 133 / 128 40% 2 12.12.2026 -
Jhojan Julio Queretaro Ativo 114 / 101 40% 1 12.12.2026 -
Paulinho Toluca Ativo 130 / 151 40% 6 10.12.2026 -
Raúl Jiménez Wolverhampton Ativo 129 / 144 40% 2 10.12.2026 -
Hugo Cuypers Monterrey Ativo 144 / 138 40% 4 09.12.2026 -
Alan Lescano Argentinos Juniors Ativo 125 / 150 40% 2 09.12.2026 -
Andrey Estupiñán Millonarios Ativo 109 / 133 40% 1 09.12.2026 -
Ignacio Russo Tigre Ativo 138 / 115 40% 6 07.12.2026 -
César Ibáñez Huracán Ativo 109 / 128 40% 2 07.12.2026 -
Richard Ledezma Guadalajara Ativo 123 / 132 40% 3 07.12.2026 -
Diber Cambindo Leon Ativo 133 / 132 40% 4 06.12.2026 -
Tomás Molina Argentinos Juniors Ativo 123 / 127 40% 2 06.12.2026 -
Jefry Zapata Once Caldas Ativo 125 / 103 40% 2 04.12.2026 -
Mousa Meunier KV Oostende Ativo 131 / 139 40% 3 03.12.2026 -
Santino Barbi Talleres Ativo 123 / 99 40% 1 30.11.2026 -
Edwuin Cetré Estudiantes Ativo 120 / 127 40% 2 28.11.2026 -
Ignacio Ramírez Newell's Old Boys Ativo 121 / 102 40% 1 28.11.2026 -
David Barbona Defensa y Justicia Ativo 125 / 110 40% 4 26.11.2026 -
Matías Pellegrini Vélez Ativo 129 / 120 40% 1 26.11.2026 -
Marco Pineda VfB Stuttgart Ativo 142 / 134 40% 4 25.11.2026 -
Lucas Passerini Belgrano Ativo 134 / 117 40% 2 23.11.2026 -
Leonardo Castro Millonarios Ativo 112 / 99 40% 2 21.11.2026 -
Borja Iglesias Celta Ativo 132 / 144 40% 1 21.11.2026 -
Gianluca Valdiviezo Colón Ativo 95 / 108 40% 1 21.11.2026 -
Ismael Díaz Leon Ativo 125 / 120 40% 3 19.11.2026 -
Antoine Griezmann Orlando City Ativo 148 / 151 40% 2 18.11.2026 -
Ozziel Herrera Tigres Ativo 110 / 109 40% 3 17.11.2026 -
Adrián Sánchez Belgrano Ativo 119 / 109 40% 1 17.11.2026 -
Peter Shalulile Mamelodi Sundowns Ativo 128 / 149 40% 4 13.11.2026 -
Jens Petter Hauge Bodo/Glimt Ativo 144 / 137 40% 2 09.11.2026 -
Ramiro Ruiz Rodríguez Atlético Tucumán Ativo 111 / 114 40% 1 09.11.2026 -
Diego Lainez Tigres Ativo 113 / 118 40% 1 07.11.2026 -
Marko Brey Los Andes Ativo 99 / 96 40% 1 06.11.2026 -
Pedro Vite Pumas UNAM Ativo 131 / 130 40% 1 04.11.2026 -
Enzo Cardozo Almirante Brown Ativo 112 / 125 40% 1 02.11.2026 -
Kevin Zenón Boca Juniors Ativo 134 / 141 40% 1 30.10.2026 -
Antony Alonso Deportivo Riestra Ativo 109 / 103 40% 1 30.10.2026 -
Juan Brunetta Tigres Ativo 135 / 126 40% 3 28.10.2026 -
José Arnáiz Granada Ativo 122 / 116 40% 1 28.10.2026 -
Ezequiel Bullaude Santos Laguna Ativo 110 / 143 40% 1 27.10.2026 -
Franco Fagúndez Estudiantes Ativo 113 / 128 40% 2 25.10.2026 -
Favio Cabral Mitre Ativo 134 / 113 40% 2 23.10.2026 -
Adalberto Carrasquilla Pumas UNAM Ativo 116 / 143 40% 1 21.10.2026 -
Lucas González Estudiantes Ativo 95 / 106 40% 1 21.10.2026 -
Joaquín Correa Estudiantes Ativo 135 / 122 40% 1 19.10.2026 -
Juan Pablo Domínguez Leon Ativo 139 / 125 40% 1 18.10.2026 -
Tomás Silva Platense Ativo 113 / 118 40% 1 18.10.2026 -
Anthony Lozano Santos Laguna Ativo 112 / 123 40% 3 16.10.2026 -
Martín Ortega Newell's Old Boys Ativo 128 / 102 40% 1 15.10.2026 -
Santiago Montiel Independiente Ativo 127 / 123 40% 1 15.10.2026 -
Emiliano Rigoni Belgrano Ativo 125 / 120 40% 1 12.10.2026 -
Enner Valencia Boca Juniors Ativo 133 / 115 40% 1 12.10.2026 -
Facundo Castro Nueva Chicago Ativo 112 / 120 40% 1 10.10.2026 -
Henry Martín Club America Ativo 151 / 151 40% 1 09.10.2026 -
Kyriani Sabbe Club Brugge Ativo 126 / 117 40% 1 08.10.2026 -
Jeon Jin-Woo Albirex Niigata Ativo 128 / 119 40% 1 06.10.2026 -
Brian Rodríguez Club America Ativo 140 / 142 40% 1 06.10.2026 -
Chris Ramos Botafogo Ativo 112 / 106 40% 1 28.09.2026 -
Enzo González Defensores Ativo 108 / 103 40% 1 27.09.2026 -
Yoshan Valois Lanús Ativo 127 / 133 40% 1 25.09.2026 -
Luciano Pons Atletico Bucaramanga Ativo 123 / 128 40% 1 24.09.2026 -
Agustín Venezia Iquique Ativo 110 / 93 40% 1 20.09.2026 -
Facundo Pons San Martín Ativo 106 / 107 40% 1 19.09.2026 -
Rafael Santos Borré River Plate Ativo 134 / 133 40% 3 17.09.2026 -
Pablo Aguiar Gimnasia La Plata Ativo 98 / 132 40% 1 17.09.2026 -
Gaetano Motta Patronato Ativo 83 / 112 40% 1 17.09.2026 -
Alfredo Morelos Atletico Nacional Ativo 136 / 104 40% 1 13.09.2026 -
Lucas Cano All Boys Ativo 110 / 129 40% 1 13.09.2026 -
Abel Hernández Penarol Ativo 142 / 135 40% 1 12.09.2026 -
Ricardo Marín Guadalajara Ativo 106 / 129 40% 1 11.09.2026 -
Sergio Quintero La Equidad Ativo 128 / 130 40% 1 11.09.2026 -
José Pachuca Puebla Ativo 98 / 93 40% 1 11.09.2026 -
Nahuel Herrera Penarol Ativo 127 / 106 40% 1 10.09.2026 -
Esteban de Lima Tacuarembo Ativo 85 / 77 40% 1 10.09.2026 -
Renzo Reynaga Patronato Ativo 127 / 109 40% 1 08.09.2026 -
Lucas Ocampos West Ham United Ativo 147 / 140 40% 1 07.09.2026 -
Valentino Massi Sarmiento Ativo 90 / 97 40% 1 31.08.2026 -
Gastón Olveira Olimpia Ativo 130 / 137 40% 1 24.08.2026 -
Elías Báez Atlanta United FC Ativo 136 / 144 40% 1 18.08.2026 -
Tiago Marghetich Quilmes Ativo 95 / 83 40% 1 18.08.2026 -
Sergio Herrera Osasuna Ativo 128 / 131 40% 1 01.08.2026 -